sensor_id;sensor_type;location;lat;lon;timestamp;P1;durP1;ratioP1;P2;durP2;ratioP2
42802;SDS011;28447;48.682;9.022;2023-11-21T05:02:17;1.67;;;1.50;;
42802;SDS011;28447;48.682;9.022;2023-11-21T05:04:44;1.97;;;1.57;;
42802;SDS011;28447;48.682;9.022;2023-11-21T05:07:11;5.90;;;1.90;;
42802;SDS011;28447;48.682;9.022;2023-11-21T05:09:41;2.33;;;1.50;;
42802;SDS011;28447;48.682;9.022;2023-11-21T05:12:09;1.73;;;1.63;;
42802;SDS011;28447;48.682;9.022;2023-11-21T05:14:35;3.50;;;1.80;;
42802;SDS011;28447;48.682;9.022;2023-11-21T05:17:01;2.20;;;2.00;;
42802;SDS011;28447;48.682;9.022;2023-11-21T05:19:29;1.87;;;1.60;;
42802;SDS011;28447;48.682;9.022;2023-11-21T05:21:55;2.67;;;1.73;;
42802;SDS011;28447;48.682;9.022;2023-11-21T05:24:21;3.03;;;2.50;;
42802;SDS011;28447;48.682;9.022;2023-11-21T05:26:47;2.00;;;1.80;;
42802;SDS011;28447;48.682;9.022;2023-11-21T05:29:13;6.00;;;2.10;;
42802;SDS011;28447;48.682;9.022;2023-11-21T05:31:39;3.20;;;2.00;;
42802;SDS011;28447;48.682;9.022;2023-11-21T05:34:05;2.50;;;1.93;;
42802;SDS011;28447;48.682;9.022;2023-11-21T05:36:31;3.77;;;2.40;;
42802;SDS011;28447;48.682;9.022;2023-11-21T05:38:57;3.90;;;2.90;;
42802;SDS011;28447;48.682;9.022;2023-11-21T05:41:23;3.33;;;2.40;;
42802;SDS011;28447;48.682;9.022;2023-11-21T05:43:49;4.80;;;2.80;;
42802;SDS011;28447;48.682;9.022;2023-11-21T05:46:15;5.77;;;2.80;;
42802;SDS011;28447;48.682;9.022;2023-11-21T05:48:41;5.13;;;2.57;;
42802;SDS011;28447;48.682;9.022;2023-11-21T05:51:07;3.80;;;2.40;;
42802;SDS011;28447;48.682;9.022;2023-11-21T05:53:33;3.30;;;2.70;;
42802;SDS011;28447;48.682;9.022;2023-11-21T05:55:59;4.47;;;3.07;;
42802;SDS011;28447;48.682;9.022;2023-11-21T05:58:25;3.20;;;2.67;;
42802;SDS011;28447;48.682;9.022;2023-11-21T06:00:51;2.30;;;2.10;;
42802;SDS011;28447;48.682;9.022;2023-11-21T06:03:17;4.97;;;2.40;;
42802;SDS011;28447;48.682;9.022;2023-11-21T06:05:43;3.17;;;2.53;;
42802;SDS011;28447;48.682;9.022;2023-11-21T06:08:09;2.30;;;2.10;;
42802;SDS011;28447;48.682;9.022;2023-11-21T06:10:35;5.93;;;2.30;;
42802;SDS011;28447;48.682;9.022;2023-11-21T06:13:01;4.03;;;2.50;;
42802;SDS011;28447;48.682;9.022;2023-11-21T06:15:28;3.50;;;2.30;;
42802;SDS011;28447;48.682;9.022;2023-11-21T06:17:54;4.30;;;2.20;;
42802;SDS011;28447;48.682;9.022;2023-11-21T06:20:21;3.30;;;2.30;;
42802;SDS011;28447;48.682;9.022;2023-11-21T06:22:48;4.10;;;2.43;;
42802;SDS011;28447;48.682;9.022;2023-11-21T06:25:15;3.77;;;2.70;;
42802;SDS011;28447;48.682;9.022;2023-11-21T06:27:42;4.70;;;2.83;;
42802;SDS011;28447;48.682;9.022;2023-11-21T06:30:15;3.00;;;1.93;;
42802;SDS011;28447;48.682;9.022;2023-11-21T06:32:41;5.30;;;3.07;;
42802;SDS011;28447;48.682;9.022;2023-11-21T06:35:10;5.03;;;2.90;;
42802;SDS011;28447;48.682;9.022;2023-11-21T06:37:38;5.07;;;2.57;;
42802;SDS011;28447;48.682;9.022;2023-11-21T06:40:04;4.70;;;2.70;;
42802;SDS011;28447;48.682;9.022;2023-11-21T06:42:31;4.30;;;2.60;;
42802;SDS011;28447;48.682;9.022;2023-11-21T06:44:58;3.00;;;2.47;;
42802;SDS011;28447;48.682;9.022;2023-11-21T06:47:27;6.80;;;3.00;;
42802;SDS011;28447;48.682;9.022;2023-11-21T06:49:54;4.53;;;2.97;;
42802;SDS011;28447;48.682;9.022;2023-11-21T06:52:20;3.70;;;3.30;;
42802;SDS011;28447;48.682;9.022;2023-11-21T06:54:47;4.87;;;3.10;;
42802;SDS011;28447;48.682;9.022;2023-11-21T06:57:16;11.03;;;3.87;;
42802;SDS011;28447;48.682;9.022;2023-11-21T06:59:42;5.13;;;3.60;;
42802;SDS011;28447;48.682;9.022;2023-11-21T07:02:08;6.23;;;3.70;;
42802;SDS011;28447;48.682;9.022;2023-11-21T07:04:35;5.70;;;3.10;;
42802;SDS011;28447;48.682;9.022;2023-11-21T07:07:01;9.80;;;5.77;;
42802;SDS011;28447;48.682;9.022;2023-11-21T07:09:28;17.00;;;6.60;;
42802;SDS011;28447;48.682;9.022;2023-11-21T07:11:54;16.77;;;7.20;;
42802;SDS011;28447;48.682;9.022;2023-11-21T07:14:20;18.30;;;7.40;;
42802;SDS011;28447;48.682;9.022;2023-11-21T07:16:47;7.87;;;4.57;;
42802;SDS011;28447;48.682;9.022;2023-11-21T07:19:13;3.40;;;2.97;;
42802;SDS011;28447;48.682;9.022;2023-11-21T07:21:39;4.60;;;3.63;;
42802;SDS011;28447;48.682;9.022;2023-11-21T07:24:06;4.00;;;3.17;;
42802;SDS011;28447;48.682;9.022;2023-11-21T07:26:32;5.10;;;3.17;;
42802;SDS011;28447;48.682;9.022;2023-11-21T07:28:59;5.80;;;3.13;;
42802;SDS011;28447;48.682;9.022;2023-11-21T07:31:25;4.70;;;3.50;;
42802;SDS011;28447;48.682;9.022;2023-11-21T07:33:51;6.20;;;3.57;;
42802;SDS011;28447;48.682;9.022;2023-11-21T07:36:18;3.53;;;3.07;;
42802;SDS011;28447;48.682;9.022;2023-11-21T07:38:45;3.30;;;2.90;;
42802;SDS011;28447;48.682;9.022;2023-11-21T07:41:13;4.90;;;3.10;;
42802;SDS011;28447;48.682;9.022;2023-11-21T07:43:42;3.17;;;2.87;;
42802;SDS011;28447;48.682;9.022;2023-11-21T07:46:09;5.07;;;3.70;;
42802;SDS011;28447;48.682;9.022;2023-11-21T07:48:37;4.13;;;3.73;;
42802;SDS011;28447;48.682;9.022;2023-11-21T07:51:03;9.93;;;3.10;;
42802;SDS011;28447;48.682;9.022;2023-11-21T07:53:29;8.03;;;4.00;;
42802;SDS011;28447;48.682;9.022;2023-11-21T07:55:56;5.60;;;3.43;;
42802;SDS011;28447;48.682;9.022;2023-11-21T07:58:22;5.10;;;3.30;;
42802;SDS011;28447;48.682;9.022;2023-11-21T08:00:49;3.00;;;2.70;;
42802;SDS011;28447;48.682;9.022;2023-11-21T08:03:15;4.40;;;2.90;;
42802;SDS011;28447;48.682;9.022;2023-11-21T08:05:41;3.13;;;2.53;;
42802;SDS011;28447;48.682;9.022;2023-11-21T08:08:07;4.10;;;2.40;;
42802;SDS011;28447;48.682;9.022;2023-11-21T08:10:34;3.57;;;2.30;;
42802;SDS011;28447;48.682;9.022;2023-11-21T08:13:00;2.80;;;2.60;;
42802;SDS011;28447;48.682;9.022;2023-11-21T08:15:26;4.00;;;2.33;;
42802;SDS011;28447;48.682;9.022;2023-11-21T08:17:53;4.67;;;2.90;;
42802;SDS011;28447;48.682;9.022;2023-11-21T08:20:19;3.97;;;2.97;;
42802;SDS011;28447;48.682;9.022;2023-11-21T08:22:45;4.33;;;3.27;;
42802;SDS011;28447;48.682;9.022;2023-11-21T08:25:12;4.70;;;2.20;;
42802;SDS011;28447;48.682;9.022;2023-11-21T08:27:38;3.30;;;2.50;;
42802;SDS011;28447;48.682;9.022;2023-11-21T08:30:04;4.27;;;2.57;;
42802;SDS011;28447;48.682;9.022;2023-11-21T08:32:30;2.60;;;2.23;;
42802;SDS011;28447;48.682;9.022;2023-11-21T08:34:58;3.17;;;2.27;;
42802;SDS011;28447;48.682;9.022;2023-11-21T08:37:24;2.50;;;2.13;;
42802;SDS011;28447;48.682;9.022;2023-11-21T08:39:52;2.97;;;2.40;;
42802;SDS011;28447;48.682;9.022;2023-11-21T08:42:18;3.13;;;2.50;;
42802;SDS011;28447;48.682;9.022;2023-11-21T08:44:44;2.60;;;2.20;;
42802;SDS011;28447;48.682;9.022;2023-11-21T08:47:10;8.10;;;2.10;;
42802;SDS011;28447;48.682;9.022;2023-11-21T08:49:36;3.93;;;2.50;;
42802;SDS011;28447;48.682;9.022;2023-11-21T08:52:03;2.80;;;2.30;;
42802;SDS011;28447;48.682;9.022;2023-11-21T08:54:30;4.77;;;3.10;;
42802;SDS011;28447;48.682;9.022;2023-11-21T08:56:56;3.40;;;2.43;;
42802;SDS011;28447;48.682;9.022;2023-11-21T08:59:23;2.83;;;1.77;;
42802;SDS011;28447;48.682;9.022;2023-11-21T09:01:49;3.00;;;2.60;;
42802;SDS011;28447;48.682;9.022;2023-11-21T09:04:15;2.33;;;2.00;;
42802;SDS011;28447;48.682;9.022;2023-11-21T09:06:41;3.10;;;2.20;;
42802;SDS011;28447;48.682;9.022;2023-11-21T09:09:07;3.37;;;2.23;;
42802;SDS011;28447;48.682;9.022;2023-11-21T09:11:35;2.27;;;2.00;;
42802;SDS011;28447;48.682;9.022;2023-11-21T09:14:01;3.30;;;2.00;;
42802;SDS011;28447;48.682;9.022;2023-11-21T09:16:28;2.70;;;2.00;;
42802;SDS011;28447;48.682;9.022;2023-11-21T09:18:54;2.43;;;2.23;;
42802;SDS011;28447;48.682;9.022;2023-11-21T09:21:20;2.90;;;1.77;;
42802;SDS011;28447;48.682;9.022;2023-11-21T09:23:47;3.60;;;2.30;;
42802;SDS011;28447;48.682;9.022;2023-11-21T09:26:13;2.70;;;2.47;;
42802;SDS011;28447;48.682;9.022;2023-11-21T09:28:41;3.43;;;2.40;;
42802;SDS011;28447;48.682;9.022;2023-11-21T09:31:11;2.70;;;2.30;;
42802;SDS011;28447;48.682;9.022;2023-11-21T09:33:37;4.70;;;2.30;;
42802;SDS011;28447;48.682;9.022;2023-11-21T09:36:04;3.33;;;1.97;;
42802;SDS011;28447;48.682;9.022;2023-11-21T09:38:30;2.10;;;1.90;;
42802;SDS011;28447;48.682;9.022;2023-11-21T09:40:56;2.60;;;2.20;;
42802;SDS011;28447;48.682;9.022;2023-11-21T09:43:23;2.50;;;2.00;;
42802;SDS011;28447;48.682;9.022;2023-11-21T09:45:56;2.83;;;2.07;;
42802;SDS011;28447;48.682;9.022;2023-11-21T09:48:22;3.80;;;2.30;;
42802;SDS011;28447;48.682;9.022;2023-11-21T09:50:50;3.40;;;2.70;;
42802;SDS011;28447;48.682;9.022;2023-11-21T09:53:19;5.30;;;2.57;;
42802;SDS011;28447;48.682;9.022;2023-11-21T09:55:52;2.40;;;2.07;;
42802;SDS011;28447;48.682;9.022;2023-11-21T09:58:19;4.40;;;2.07;;
42802;SDS011;28447;48.682;9.022;2023-11-21T10:00:47;2.53;;;1.97;;
42802;SDS011;28447;48.682;9.022;2023-11-21T10:03:13;2.93;;;1.90;;
42802;SDS011;28447;48.682;9.022;2023-11-21T10:05:40;3.37;;;2.17;;
42802;SDS011;28447;48.682;9.022;2023-11-21T10:08:08;3.50;;;2.07;;
42802;SDS011;28447;48.682;9.022;2023-11-21T10:10:37;2.43;;;2.00;;
42802;SDS011;28447;48.682;9.022;2023-11-21T10:13:06;4.50;;;2.17;;
42802;SDS011;28447;48.682;9.022;2023-11-21T10:15:33;2.87;;;2.17;;
42802;SDS011;28447;48.682;9.022;2023-11-21T10:18:03;3.03;;;2.30;;
42802;SDS011;28447;48.682;9.022;2023-11-21T10:20:30;3.20;;;2.30;;
42802;SDS011;28447;48.682;9.022;2023-11-21T10:22:56;2.63;;;2.30;;
42802;SDS011;28447;48.682;9.022;2023-11-21T10:25:22;2.43;;;2.00;;
42802;SDS011;28447;48.682;9.022;2023-11-21T10:27:48;3.33;;;2.30;;
42802;SDS011;28447;48.682;9.022;2023-11-21T10:30:18;9.70;;;2.50;;
42802;SDS011;28447;48.682;9.022;2023-11-21T10:32:44;3.13;;;2.30;;
42802;SDS011;28447;48.682;9.022;2023-11-21T10:35:10;5.10;;;2.30;;
42802;SDS011;28447;48.682;9.022;2023-11-21T10:37:37;2.50;;;2.10;;
42802;SDS011;28447;48.682;9.022;2023-11-21T10:40:09;4.87;;;2.80;;
42802;SDS011;28447;48.682;9.022;2023-11-21T10:42:38;3.13;;;2.30;;
42802;SDS011;28447;48.682;9.022;2023-11-21T10:45:05;4.13;;;2.43;;
42802;SDS011;28447;48.682;9.022;2023-11-21T10:47:41;4.00;;;2.70;;
42802;SDS011;28447;48.682;9.022;2023-11-21T10:50:07;2.50;;;2.30;;
42802;SDS011;28447;48.682;9.022;2023-11-21T10:52:36;4.80;;;3.10;;
42802;SDS011;28447;48.682;9.022;2023-11-21T10:55:15;3.97;;;2.90;;
42802;SDS011;28447;48.682;9.022;2023-11-21T10:57:42;8.57;;;3.33;;
42802;SDS011;28447;48.682;9.022;2023-11-21T11:00:09;3.80;;;3.10;;
42802;SDS011;28447;48.682;9.022;2023-11-21T11:02:38;7.00;;;4.03;;
42802;SDS011;28447;48.682;9.022;2023-11-21T11:05:05;3.83;;;3.20;;
42802;SDS011;28447;48.682;9.022;2023-11-21T11:07:31;8.10;;;3.60;;
42802;SDS011;28447;48.682;9.022;2023-11-21T11:09:59;6.40;;;3.73;;
42802;SDS011;28447;48.682;9.022;2023-11-21T11:12:25;5.77;;;3.47;;
42802;SDS011;28447;48.682;9.022;2023-11-21T11:14:54;6.23;;;4.20;;
42802;SDS011;28447;48.682;9.022;2023-11-21T11:17:21;6.30;;;4.90;;
42802;SDS011;28447;48.682;9.022;2023-11-21T11:19:47;6.43;;;4.70;;
42802;SDS011;28447;48.682;9.022;2023-11-21T11:22:18;6.40;;;5.00;;
42802;SDS011;28447;48.682;9.022;2023-11-21T11:30:08;6.30;;;4.73;;
42802;SDS011;28447;48.682;9.022;2023-11-21T11:37:54;6.00;;;5.40;;
42802;SDS011;28447;48.682;9.022;2023-11-21T11:40:20;6.27;;;4.70;;
42802;SDS011;28447;48.682;9.022;2023-11-21T11:42:57;5.70;;;4.97;;
42802;SDS011;28447;48.682;9.022;2023-11-21T11:45:24;7.03;;;5.60;;
42802;SDS011;28447;48.682;9.022;2023-11-21T11:47:56;6.30;;;5.00;;
42802;SDS011;28447;48.682;9.022;2023-11-21T11:50:22;8.30;;;5.00;;
42802;SDS011;28447;48.682;9.022;2023-11-21T11:52:50;5.13;;;4.17;;
42802;SDS011;28447;48.682;9.022;2023-11-21T11:55:18;7.00;;;4.23;;
42802;SDS011;28447;48.682;9.022;2023-11-21T11:57:45;5.80;;;4.37;;
42802;SDS011;28447;48.682;9.022;2023-11-21T12:02:41;5.47;;;4.57;;
42802;SDS011;28447;48.682;9.022;2023-11-21T12:05:11;5.07;;;3.57;;
42802;SDS011;28447;48.682;9.022;2023-11-21T12:07:54;5.70;;;4.47;;
42802;SDS011;28447;48.682;9.022;2023-11-21T12:10:26;4.03;;;3.57;;
42802;SDS011;28447;48.682;9.022;2023-11-21T12:15:19;7.93;;;5.37;;
42802;SDS011;28447;48.682;9.022;2023-11-21T12:17:46;7.90;;;5.10;;
42802;SDS011;28447;48.682;9.022;2023-11-21T12:20:14;4.80;;;3.90;;
42802;SDS011;28447;48.682;9.022;2023-11-21T12:22:49;3.30;;;3.00;;
42802;SDS011;28447;48.682;9.022;2023-11-21T12:25:16;3.60;;;2.50;;
42802;SDS011;28447;48.682;9.022;2023-11-21T12:27:43;3.97;;;3.07;;
42802;SDS011;28447;48.682;9.022;2023-11-21T12:30:10;4.10;;;2.87;;
42802;SDS011;28447;48.682;9.022;2023-11-21T12:32:39;3.83;;;3.13;;
42802;SDS011;28447;48.682;9.022;2023-11-21T12:35:06;5.17;;;3.67;;
42802;SDS011;28447;48.682;9.022;2023-11-21T12:37:32;4.23;;;3.60;;
42802;SDS011;28447;48.682;9.022;2023-11-21T12:39:58;4.70;;;3.40;;
42802;SDS011;28447;48.682;9.022;2023-11-21T12:42:24;5.37;;;3.23;;
42802;SDS011;28447;48.682;9.022;2023-11-21T12:47:52;4.63;;;3.20;;
42802;SDS011;28447;48.682;9.022;2023-11-21T12:50:20;4.90;;;3.40;;
42802;SDS011;28447;48.682;9.022;2023-11-21T12:52:48;4.17;;;3.30;;
42802;SDS011;28447;48.682;9.022;2023-11-21T12:55:18;3.73;;;2.90;;
42802;SDS011;28447;48.682;9.022;2023-11-21T12:57:47;4.63;;;3.43;;
42802;SDS011;28447;48.682;9.022;2023-11-21T13:00:17;4.20;;;3.27;;
42802;SDS011;28447;48.682;9.022;2023-11-21T13:02:53;4.00;;;3.10;;
42802;SDS011;28447;48.682;9.022;2023-11-21T13:08:00;6.83;;;3.10;;
42802;SDS011;28447;48.682;9.022;2023-11-21T13:10:33;3.70;;;2.47;;
42802;SDS011;28447;48.682;9.022;2023-11-21T13:13:01;3.10;;;2.67;;
42802;SDS011;28447;48.682;9.022;2023-11-21T13:15:30;4.10;;;2.53;;
42802;SDS011;28447;48.682;9.022;2023-11-21T13:17:57;3.90;;;3.10;;
42802;SDS011;28447;48.682;9.022;2023-11-21T13:20:24;3.23;;;2.93;;
42802;SDS011;28447;48.682;9.022;2023-11-21T13:22:53;3.33;;;2.77;;
42802;SDS011;28447;48.682;9.022;2023-11-21T13:25:22;3.90;;;3.07;;
42802;SDS011;28447;48.682;9.022;2023-11-21T13:27:48;4.40;;;3.83;;
42802;SDS011;28447;48.682;9.022;2023-11-21T13:30:15;4.20;;;3.37;;
42802;SDS011;28447;48.682;9.022;2023-11-21T13:32:44;5.70;;;3.23;;
42802;SDS011;28447;48.682;9.022;2023-11-21T13:35:16;4.60;;;3.30;;
42802;SDS011;28447;48.682;9.022;2023-11-21T13:37:49;4.83;;;4.30;;
42802;SDS011;28447;48.682;9.022;2023-11-21T13:40:19;5.40;;;4.10;;
42802;SDS011;28447;48.682;9.022;2023-11-21T13:42:47;6.43;;;5.00;;
42802;SDS011;28447;48.682;9.022;2023-11-21T13:45:13;4.60;;;3.90;;
42802;SDS011;28447;48.682;9.022;2023-11-21T13:47:41;3.77;;;3.13;;
42802;SDS011;28447;48.682;9.022;2023-11-21T13:50:08;3.37;;;2.03;;
42802;SDS011;28447;48.682;9.022;2023-11-21T13:52:42;1.80;;;1.60;;
42802;SDS011;28447;48.682;9.022;2023-11-21T13:55:10;1.70;;;1.50;;
42802;SDS011;28447;48.682;9.022;2023-11-21T13:57:44;2.87;;;1.50;;
42802;SDS011;28447;48.682;9.022;2023-11-21T14:00:14;3.30;;;2.30;;
42802;SDS011;28447;48.682;9.022;2023-11-21T14:02:59;3.40;;;2.10;;
42802;SDS011;28447;48.682;9.022;2023-11-21T14:05:29;2.40;;;1.80;;
42802;SDS011;28447;48.682;9.022;2023-11-21T14:07:59;2.07;;;1.87;;
42802;SDS011;28447;48.682;9.022;2023-11-21T14:10:29;2.37;;;1.90;;
42802;SDS011;28447;48.682;9.022;2023-11-21T14:13:05;2.20;;;1.90;;
42802;SDS011;28447;48.682;9.022;2023-11-21T14:15:31;2.27;;;1.80;;
42802;SDS011;28447;48.682;9.022;2023-11-21T14:18:06;2.40;;;2.10;;
42802;SDS011;28447;48.682;9.022;2023-11-21T14:20:35;2.47;;;2.17;;
42802;SDS011;28447;48.682;9.022;2023-11-21T14:23:02;2.70;;;2.37;;
42802;SDS011;28447;48.682;9.022;2023-11-21T14:25:29;5.90;;;2.90;;
42802;SDS011;28447;48.682;9.022;2023-11-21T14:27:55;3.33;;;2.80;;
42802;SDS011;28447;48.682;9.022;2023-11-21T14:30:21;3.53;;;3.23;;
42802;SDS011;28447;48.682;9.022;2023-11-21T14:32:48;3.50;;;2.40;;
42802;SDS011;28447;48.682;9.022;2023-11-21T14:35:15;3.00;;;2.37;;
42802;SDS011;28447;48.682;9.022;2023-11-21T14:37:42;3.40;;;2.63;;
42802;SDS011;28447;48.682;9.022;2023-11-21T14:40:08;3.57;;;2.40;;
42802;SDS011;28447;48.682;9.022;2023-11-21T14:42:34;3.23;;;2.93;;
42802;SDS011;28447;48.682;9.022;2023-11-21T14:45:04;7.80;;;3.10;;
42802;SDS011;28447;48.682;9.022;2023-11-21T14:47:32;5.27;;;3.30;;
42802;SDS011;28447;48.682;9.022;2023-11-21T14:50:00;3.53;;;3.23;;
42802;SDS011;28447;48.682;9.022;2023-11-21T14:52:37;4.80;;;3.80;;
42802;SDS011;28447;48.682;9.022;2023-11-21T14:55:17;4.50;;;3.90;;
42802;SDS011;28447;48.682;9.022;2023-11-21T14:58:08;4.30;;;3.63;;
42802;SDS011;28447;48.682;9.022;2023-11-21T15:00:38;5.87;;;3.90;;
42802;SDS011;28447;48.682;9.022;2023-11-21T15:03:10;6.13;;;4.00;;
42802;SDS011;28447;48.682;9.022;2023-11-21T15:05:57;5.10;;;4.20;;
42802;SDS011;28447;48.682;9.022;2023-11-21T15:08:24;4.67;;;3.83;;
42802;SDS011;28447;48.682;9.022;2023-11-21T15:10:57;5.33;;;4.40;;
42802;SDS011;28447;48.682;9.022;2023-11-21T15:13:23;5.00;;;4.17;;
42802;SDS011;28447;48.682;9.022;2023-11-21T15:15:52;5.13;;;4.33;;
42802;SDS011;28447;48.682;9.022;2023-11-21T15:18:21;4.50;;;4.07;;
42802;SDS011;28447;48.682;9.022;2023-11-21T15:20:47;7.13;;;4.63;;
42802;SDS011;28447;48.682;9.022;2023-11-21T15:23:13;6.93;;;4.80;;
42802;SDS011;28447;48.682;9.022;2023-11-21T15:25:41;5.40;;;4.90;;
42802;SDS011;28447;48.682;9.022;2023-11-21T15:28:07;9.27;;;4.87;;
42802;SDS011;28447;48.682;9.022;2023-11-21T15:30:33;7.40;;;5.30;;
42802;SDS011;28447;48.682;9.022;2023-11-21T15:33:00;6.57;;;5.23;;
42802;SDS011;28447;48.682;9.022;2023-11-21T15:35:28;18.20;;;10.97;;
42802;SDS011;28447;48.682;9.022;2023-11-21T15:37:54;7.97;;;5.33;;
42802;SDS011;28447;48.682;9.022;2023-11-21T15:40:24;6.03;;;5.03;;
42802;SDS011;28447;48.682;9.022;2023-11-21T15:42:50;9.27;;;7.87;;
42802;SDS011;28447;48.682;9.022;2023-11-21T15:45:17;7.20;;;6.40;;
42802;SDS011;28447;48.682;9.022;2023-11-21T15:47:46;9.27;;;7.30;;
42802;SDS011;28447;48.682;9.022;2023-11-21T15:50:12;7.57;;;5.90;;
42802;SDS011;28447;48.682;9.022;2023-11-21T15:52:38;16.87;;;10.83;;
42802;SDS011;28447;48.682;9.022;2023-11-21T15:55:05;15.53;;;11.00;;
42802;SDS011;28447;48.682;9.022;2023-11-21T15:57:34;8.00;;;6.67;;
42802;SDS011;28447;48.682;9.022;2023-11-21T16:00:00;11.50;;;7.03;;
42802;SDS011;28447;48.682;9.022;2023-11-21T16:02:32;12.50;;;9.10;;
42802;SDS011;28447;48.682;9.022;2023-11-21T16:04:58;12.53;;;8.97;;
42802;SDS011;28447;48.682;9.022;2023-11-21T16:07:24;11.00;;;8.40;;
42802;SDS011;28447;48.682;9.022;2023-11-21T16:09:50;10.87;;;8.03;;
42802;SDS011;28447;48.682;9.022;2023-11-21T16:12:16;13.10;;;8.57;;
42802;SDS011;28447;48.682;9.022;2023-11-21T16:14:43;13.33;;;8.30;;
42802;SDS011;28447;48.682;9.022;2023-11-21T16:17:14;11.63;;;8.37;;
42802;SDS011;28447;48.682;9.022;2023-11-21T16:19:42;10.60;;;7.77;;
42802;SDS011;28447;48.682;9.022;2023-11-21T16:22:08;15.43;;;7.73;;
42802;SDS011;28447;48.682;9.022;2023-11-21T16:24:35;15.03;;;9.20;;
42802;SDS011;28447;48.682;9.022;2023-11-21T16:27:02;11.90;;;8.23;;
42802;SDS011;28447;48.682;9.022;2023-11-21T16:29:29;10.70;;;8.40;;
42802;SDS011;28447;48.682;9.022;2023-11-21T16:31:56;12.67;;;8.03;;
42802;SDS011;28447;48.682;9.022;2023-11-21T16:34:22;12.50;;;9.20;;
42802;SDS011;28447;48.682;9.022;2023-11-21T16:36:48;12.60;;;8.17;;
42802;SDS011;28447;48.682;9.022;2023-11-21T16:39:14;14.90;;;8.57;;
42802;SDS011;28447;48.682;9.022;2023-11-21T16:41:42;14.77;;;9.30;;
42802;SDS011;28447;48.682;9.022;2023-11-21T16:44:18;12.60;;;8.33;;
42802;SDS011;28447;48.682;9.022;2023-11-21T16:46:45;11.60;;;8.50;;
42802;SDS011;28447;48.682;9.022;2023-11-21T16:49:12;19.90;;;12.10;;
42802;SDS011;28447;48.682;9.022;2023-11-21T16:51:38;17.20;;;12.17;;
42802;SDS011;28447;48.682;9.022;2023-11-21T16:54:04;20.70;;;11.70;;
42802;SDS011;28447;48.682;9.022;2023-11-21T16:56:30;11.73;;;9.23;;
42802;SDS011;28447;48.682;9.022;2023-11-21T16:58:56;13.67;;;8.70;;
42802;SDS011;28447;48.682;9.022;2023-11-21T17:01:22;32.27;;;17.53;;
42802;SDS011;28447;48.682;9.022;2023-11-21T17:03:50;36.33;;;18.90;;
42802;SDS011;28447;48.682;9.022;2023-11-21T17:06:17;30.97;;;16.93;;
42802;SDS011;28447;48.682;9.022;2023-11-21T17:08:43;21.40;;;11.97;;
42802;SDS011;28447;48.682;9.022;2023-11-21T17:11:10;15.70;;;11.00;;
42802;SDS011;28447;48.682;9.022;2023-11-21T17:13:39;16.47;;;10.90;;
42802;SDS011;28447;48.682;9.022;2023-11-21T17:16:06;17.60;;;10.87;;
42802;SDS011;28447;48.682;9.022;2023-11-21T17:18:32;17.30;;;11.10;;
42802;SDS011;28447;48.682;9.022;2023-11-21T17:20:58;17.27;;;10.83;;
42802;SDS011;28447;48.682;9.022;2023-11-21T17:23:25;17.77;;;11.83;;
42802;SDS011;28447;48.682;9.022;2023-11-21T17:25:52;16.23;;;10.90;;
42802;SDS011;28447;48.682;9.022;2023-11-21T17:28:18;18.20;;;12.47;;
42802;SDS011;28447;48.682;9.022;2023-11-21T17:30:44;17.40;;;11.00;;
42802;SDS011;28447;48.682;9.022;2023-11-21T17:33:10;14.97;;;9.53;;
42802;SDS011;28447;48.682;9.022;2023-11-21T17:35:38;15.37;;;9.90;;
42802;SDS011;28447;48.682;9.022;2023-11-21T17:38:06;22.90;;;11.20;;
42802;SDS011;28447;48.682;9.022;2023-11-21T17:40:33;15.80;;;10.63;;
42802;SDS011;28447;48.682;9.022;2023-11-21T17:43:00;18.63;;;13.10;;
42802;SDS011;28447;48.682;9.022;2023-11-21T17:45:26;19.87;;;13.20;;
42802;SDS011;28447;48.682;9.022;2023-11-21T17:47:52;20.80;;;13.10;;
42802;SDS011;28447;48.682;9.022;2023-11-21T17:50:21;21.43;;;13.30;;
42802;SDS011;28447;48.682;9.022;2023-11-21T17:52:47;19.80;;;13.20;;
42802;SDS011;28447;48.682;9.022;2023-11-21T17:55:13;20.40;;;12.33;;
42802;SDS011;28447;48.682;9.022;2023-11-21T17:57:39;20.60;;;12.73;;
42802;SDS011;28447;48.682;9.022;2023-11-21T18:00:06;23.63;;;12.80;;
42802;SDS011;28447;48.682;9.022;2023-11-21T18:02:37;48.53;;;21.23;;
42802;SDS011;28447;48.682;9.022;2023-11-21T18:05:05;34.20;;;19.50;;
42802;SDS011;28447;48.682;9.022;2023-11-21T18:07:36;32.20;;;14.00;;
42802;SDS011;28447;48.682;9.022;2023-11-21T18:10:02;27.63;;;15.47;;
42802;SDS011;28447;48.682;9.022;2023-11-21T18:12:30;27.60;;;15.63;;
42802;SDS011;28447;48.682;9.022;2023-11-21T18:14:56;23.00;;;14.90;;
42802;SDS011;28447;48.682;9.022;2023-11-21T18:17:22;22.80;;;14.30;;
42802;SDS011;28447;48.682;9.022;2023-11-21T18:19:48;22.00;;;12.90;;
42802;SDS011;28447;48.682;9.022;2023-11-21T18:22:19;22.47;;;12.73;;
42802;SDS011;28447;48.682;9.022;2023-11-21T18:24:46;26.60;;;15.50;;
42802;SDS011;28447;48.682;9.022;2023-11-21T18:27:13;22.47;;;13.80;;
42802;SDS011;28447;48.682;9.022;2023-11-21T18:29:39;24.17;;;13.17;;
42802;SDS011;28447;48.682;9.022;2023-11-21T18:32:05;26.33;;;13.77;;
42802;SDS011;28447;48.682;9.022;2023-11-21T18:34:35;26.60;;;14.07;;
42802;SDS011;28447;48.682;9.022;2023-11-21T18:37:04;23.43;;;13.97;;
42802;SDS011;28447;48.682;9.022;2023-11-21T18:39:30;22.37;;;12.70;;
42802;SDS011;28447;48.682;9.022;2023-11-21T18:41:56;24.90;;;13.23;;
42802;SDS011;28447;48.682;9.022;2023-11-21T18:44:22;20.83;;;12.70;;
42802;SDS011;28447;48.682;9.022;2023-11-21T18:46:48;25.60;;;13.17;;
42802;SDS011;28447;48.682;9.022;2023-11-21T18:49:14;20.67;;;12.50;;
42802;SDS011;28447;48.682;9.022;2023-11-21T18:51:44;19.20;;;12.93;;
42802;SDS011;28447;48.682;9.022;2023-11-21T18:54:10;21.30;;;12.73;;
42802;SDS011;28447;48.682;9.022;2023-11-21T18:56:36;25.33;;;12.40;;
42802;SDS011;28447;48.682;9.022;2023-11-21T18:59:02;24.10;;;13.67;;
42802;SDS011;28447;48.682;9.022;2023-11-21T19:01:30;21.80;;;12.13;;
42802;SDS011;28447;48.682;9.022;2023-11-21T19:03:56;26.80;;;13.70;;
42802;SDS011;28447;48.682;9.022;2023-11-21T19:06:26;21.03;;;12.27;;
42802;SDS011;28447;48.682;9.022;2023-11-21T19:08:52;18.67;;;11.63;;
42802;SDS011;28447;48.682;9.022;2023-11-21T19:11:18;22.10;;;14.07;;
42802;SDS011;28447;48.682;9.022;2023-11-21T19:13:46;20.00;;;11.47;;
42802;SDS011;28447;48.682;9.022;2023-11-21T19:16:12;20.83;;;13.47;;
42802;SDS011;28447;48.682;9.022;2023-11-21T19:18:41;19.97;;;11.30;;
42802;SDS011;28447;48.682;9.022;2023-11-21T19:21:17;22.57;;;12.30;;
42802;SDS011;28447;48.682;9.022;2023-11-21T19:23:44;23.10;;;11.10;;
42802;SDS011;28447;48.682;9.022;2023-11-21T19:26:10;20.53;;;11.27;;
42802;SDS011;28447;48.682;9.022;2023-11-21T19:28:37;15.73;;;10.63;;
42802;SDS011;28447;48.682;9.022;2023-11-21T19:31:04;24.30;;;11.67;;
42802;SDS011;28447;48.682;9.022;2023-11-21T19:33:32;29.60;;;18.90;;
42802;SDS011;28447;48.682;9.022;2023-11-21T19:35:58;22.83;;;13.07;;
42802;SDS011;28447;48.682;9.022;2023-11-21T19:38:24;17.40;;;12.30;;
42802;SDS011;28447;48.682;9.022;2023-11-21T19:40:50;22.07;;;14.00;;
42802;SDS011;28447;48.682;9.022;2023-11-21T19:43:16;19.87;;;12.60;;
42802;SDS011;28447;48.682;9.022;2023-11-21T19:45:43;18.50;;;12.23;;
42802;SDS011;28447;48.682;9.022;2023-11-21T19:48:12;18.13;;;11.70;;
42802;SDS011;28447;48.682;9.022;2023-11-21T19:50:38;22.50;;;12.20;;
42802;SDS011;28447;48.682;9.022;2023-11-21T19:53:04;18.87;;;12.63;;
42802;SDS011;28447;48.682;9.022;2023-11-21T19:55:30;20.73;;;11.70;;
42802;SDS011;28447;48.682;9.022;2023-11-21T19:57:56;27.80;;;11.70;;
42802;SDS011;28447;48.682;9.022;2023-11-21T20:00:22;20.97;;;11.77;;
42802;SDS011;28447;48.682;9.022;2023-11-21T20:02:49;23.53;;;13.03;;
42802;SDS011;28447;48.682;9.022;2023-11-21T20:05:15;20.50;;;11.93;;